createdAt,value
2019-02-08T00:00:44.324Z,85.93
2019-02-08T00:01:44.305Z,85.72
2019-02-08T00:02:44.278Z,85.93
2019-02-08T00:03:44.266Z,85.82
2019-02-08T00:04:44.414Z,85.51
2019-02-08T00:05:44.252Z,85.51
2019-02-08T00:06:44.260Z,85.61
2019-02-08T00:07:44.241Z,85.55
2019-02-08T00:08:44.217Z,86.34
2019-02-08T00:09:44.286Z,86.34
2019-02-08T00:10:44.388Z,85.41
2019-02-08T00:11:44.183Z,85.51
2019-02-08T00:12:44.217Z,86.38
2019-02-08T00:13:44.168Z,85.82
2019-02-08T00:14:44.161Z,85.72
2019-02-08T00:15:44.149Z,86.24
2019-02-08T00:16:44.309Z,86.17
2019-02-08T00:17:44.154Z,86.24
2019-02-08T00:18:44.119Z,85.82
2019-02-08T00:19:44.133Z,86.24
2019-02-08T00:20:44.112Z,86.17
2019-02-08T00:21:44.083Z,85.82
2019-02-08T00:22:44.250Z,85.41
2019-02-08T00:23:44.061Z,85.30
2019-02-08T00:24:44.066Z,85.72
2019-02-08T00:25:44.054Z,85.61
2019-02-08T00:26:44.099Z,85.72
2019-02-08T00:27:44.022Z,85.82
2019-02-08T00:28:44.301Z,85.72
2019-02-08T00:29:44.044Z,85.61
2019-02-08T00:30:44.297Z,85.82
2019-02-08T00:31:43.985Z,85.41
2019-02-08T00:32:43.962Z,85.41
2019-02-08T00:33:43.955Z,85.61
2019-02-08T00:34:43.955Z,85.51
2019-02-08T00:35:43.938Z,85.51
2019-02-08T00:36:44.186Z,85.41
2019-02-08T00:37:43.910Z,85.41
2019-02-08T00:38:45.564Z,85.41
2019-02-08T00:39:43.892Z,85.61
2019-02-08T00:40:43.887Z,85.44
2019-02-08T00:41:43.861Z,86.13
2019-02-08T00:42:44.133Z,85.65
2019-02-08T00:43:44.174Z,86.17
2019-02-08T00:44:43.835Z,86.49
2019-02-08T00:45:43.839Z,86.59
2019-02-08T00:46:43.841Z,86.59
2019-02-08T00:47:43.808Z,86.49
2019-02-08T00:48:44.059Z,86.38
2019-02-08T00:49:43.798Z,85.65
2019-02-08T00:50:43.771Z,85.82
2019-02-08T00:51:43.756Z,85.75
2019-02-08T00:52:43.762Z,85.41
2019-02-08T00:53:43.775Z,85.75
2019-02-08T00:54:43.870Z,85.65
2019-02-08T00:55:43.716Z,85.96
2019-02-08T00:56:43.720Z,85.86
2019-02-08T00:57:43.714Z,86.27
2019-02-08T00:58:43.970Z,86.49
2019-02-08T00:59:44.223Z,86.69
2019-02-08T01:00:43.933Z,86.59
2019-02-08T01:01:43.682Z,86.59
2019-02-08T01:02:43.656Z,86.69
2019-02-08T01:03:43.626Z,86.27
2019-02-08T01:04:43.610Z,86.17
2019-02-08T01:05:43.788Z,85.75
2019-02-08T01:06:44.403Z,85.75
2019-02-08T01:07:43.746Z,85.34
2019-02-08T01:08:46.025Z,86.49
2019-02-08T01:09:43.584Z,86.27
2019-02-08T01:10:43.558Z,86.52
2019-02-08T01:11:43.565Z,86.49
2019-02-08T01:12:43.689Z,86.80
2019-02-08T01:13:43.525Z,86.32
2019-02-08T01:14:43.520Z,86.83
2019-02-08T01:15:43.559Z,86.49
2019-02-08T01:16:43.512Z,86.52
2019-02-08T01:17:43.606Z,87.15
2019-02-08T01:18:43.622Z,86.94
2019-02-08T01:19:43.773Z,87.15
2019-02-08T01:20:43.464Z,87.04
2019-02-08T01:21:43.452Z,86.94
2019-02-08T01:22:43.440Z,86.94
2019-02-08T01:23:43.445Z,86.94
2019-02-08T01:24:43.406Z,86.94
2019-02-08T01:25:43.659Z,87.15
2019-02-08T01:26:43.392Z,87.25
2019-02-08T01:27:43.373Z,87.40
2019-02-08T01:28:43.428Z,87.08
2019-02-08T01:29:43.376Z,87.04
2019-02-08T01:30:43.603Z,87.35
2019-02-08T01:31:43.364Z,86.94
2019-02-08T01:32:43.389Z,87.25
2019-02-08T01:33:43.320Z,87.35
2019-02-08T01:34:43.302Z,87.40
2019-02-08T01:35:43.307Z,87.25
2019-02-08T01:36:43.726Z,87.60
2019-02-08T01:37:43.267Z,86.94
2019-02-08T01:38:43.263Z,86.94
2019-02-08T01:39:43.280Z,86.94
2019-02-08T01:40:43.259Z,86.98
2019-02-08T01:41:43.225Z,86.98
2019-02-08T01:42:43.333Z,87.60
2019-02-08T01:43:43.251Z,87.19
2019-02-08T01:44:43.201Z,87.15
2019-02-08T01:45:43.245Z,87.35
2019-02-08T01:46:43.208Z,87.35
2019-02-08T01:47:43.291Z,87.40
2019-02-08T01:48:43.318Z,87.81
2019-02-08T01:49:45.431Z,87.50
2019-02-08T01:50:43.129Z,87.81
2019-02-08T01:51:43.281Z,87.92
2019-02-08T01:52:43.132Z,88.02
2019-02-08T01:53:48.559Z,88.02
2019-02-08T01:54:44.205Z,88.23
2019-02-08T01:55:43.084Z,89.00
2019-02-08T01:56:43.075Z,88.89
2019-02-08T01:57:43.077Z,89.00
2019-02-08T01:58:44.209Z,89.27
2019-02-08T01:59:43.063Z,88.12
2019-02-08T02:00:43.071Z,88.33
2019-02-08T02:01:43.064Z,87.92
2019-02-08T02:02:43.066Z,87.71
2019-02-08T02:03:43.076Z,87.46
2019-02-08T02:04:43.611Z,87.19
2019-02-08T02:05:43.037Z,87.35
2019-02-08T02:06:43.216Z,87.04
2019-02-08T02:07:43.021Z,86.94
2019-02-08T02:08:43.195Z,87.29
2019-02-08T02:09:42.922Z,87.08
2019-02-08T02:10:43.651Z,87.40
2019-02-08T02:11:42.926Z,87.60
2019-02-08T02:12:42.897Z,87.50
2019-02-08T02:13:42.880Z,87.25
2019-02-08T02:14:42.885Z,87.60
2019-02-08T02:15:42.905Z,87.50
2019-02-08T02:16:43.291Z,87.50
2019-02-08T02:17:42.844Z,87.71
2019-02-08T02:18:43.166Z,87.50
2019-02-08T02:19:42.824Z,88.02
2019-02-08T02:20:42.803Z,87.92
2019-02-08T02:21:43.203Z,88.23
2019-02-08T02:22:42.779Z,88.43
2019-02-08T02:23:42.869Z,88.02
2019-02-08T02:24:42.764Z,88.33
2019-02-08T02:25:42.792Z,88.33
2019-02-08T02:26:42.738Z,88.54
2019-02-08T02:27:43.191Z,88.23
2019-02-08T02:28:42.735Z,89.17
2019-02-08T02:29:42.702Z,89.10
2019-02-08T02:30:42.706Z,89.10
2019-02-08T02:31:42.693Z,88.89
2019-02-08T02:32:42.686Z,88.68
2019-02-08T02:33:42.822Z,88.89
2019-02-08T02:34:42.661Z,89.00
2019-02-08T02:35:42.673Z,88.89
2019-02-08T02:36:42.635Z,88.68
2019-02-08T02:37:42.783Z,89.35
2019-02-08T02:38:42.652Z,89.14
2019-02-08T02:39:44.306Z,89.35
2019-02-08T02:40:42.628Z,89.35
2019-02-08T02:41:42.601Z,89.45
2019-02-08T02:42:42.623Z,89.31
2019-02-08T02:43:42.719Z,89.25
2019-02-08T02:44:42.547Z,89.45
2019-02-08T02:45:42.535Z,89.56
2019-02-08T02:46:42.562Z,89.87
2019-02-08T02:47:42.512Z,89.76
2019-02-08T02:48:42.525Z,89.87
2019-02-08T02:49:42.607Z,89.87
2019-02-08T02:50:42.511Z,90.08
2019-02-08T02:51:42.474Z,89.98
2019-02-08T02:52:42.454Z,90.08
2019-02-08T02:53:42.751Z,89.91
2019-02-08T02:54:42.457Z,90.01
2019-02-08T02:55:42.509Z,90.54
2019-02-08T02:56:42.424Z,90.64
2019-02-08T02:57:42.408Z,90.64
2019-02-08T02:58:42.387Z,90.44
2019-02-08T02:59:42.860Z,91.06
2019-02-08T03:00:42.826Z,90.75
2019-02-08T03:01:42.375Z,90.64
2019-02-08T03:02:42.672Z,90.01
2019-02-08T03:03:42.343Z,89.66
2019-02-08T03:04:42.332Z,89.87
2019-02-08T03:05:42.318Z,90.19
2019-02-08T03:06:42.303Z,90.08
2019-02-08T03:07:42.305Z,89.66
2019-02-08T03:08:42.585Z,90.08
2019-02-08T03:09:42.274Z,89.76
2019-02-08T03:10:42.287Z,89.66
2019-02-08T03:11:42.295Z,89.76
2019-02-08T03:12:42.518Z,89.56
2019-02-08T03:13:42.230Z,89.76
2019-02-08T03:14:42.631Z,90.22
2019-02-08T03:15:42.383Z,90.08
2019-02-08T03:16:42.204Z,90.39
2019-02-08T03:17:42.313Z,90.12
2019-02-08T03:18:42.178Z,90.08
2019-02-08T03:19:42.166Z,90.29
2019-02-08T03:20:42.158Z,89.76
2019-02-08T03:21:42.311Z,89.98
2019-02-08T03:22:42.282Z,89.83
2019-02-08T03:23:42.136Z,89.98
2019-02-08T03:24:42.107Z,89.98
2019-02-08T03:25:42.118Z,89.31
2019-02-08T03:26:42.092Z,89.41
2019-02-08T03:27:42.078Z,89.66
2019-02-08T03:28:42.265Z,89.35
2019-02-08T03:29:42.134Z,89.94
2019-02-08T03:30:42.045Z,89.62
2019-02-08T03:31:42.055Z,89.52
2019-02-08T03:32:42.378Z,89.73
2019-02-08T03:33:42.784Z,89.41
2019-02-08T03:34:42.023Z,89.52
2019-02-08T03:35:42.000Z,89.20
2019-02-08T03:36:41.995Z,89.41
2019-02-08T03:37:41.990Z,89.52
2019-02-08T03:38:41.975Z,89.20
2019-02-08T03:39:42.256Z,89.58
2019-02-08T03:40:41.953Z,89.52
2019-02-08T03:41:41.937Z,89.52
2019-02-08T03:42:41.920Z,89.00
2019-02-08T03:43:41.910Z,89.27
2019-02-08T03:44:41.915Z,89.48
2019-02-08T03:45:42.154Z,89.17
2019-02-08T03:46:41.969Z,89.20
2019-02-08T03:47:41.910Z,89.20
2019-02-08T03:48:41.917Z,89.52
2019-02-08T03:49:41.867Z,89.20
2019-02-08T03:50:43.222Z,89.06
2019-02-08T03:51:42.081Z,89.37
2019-02-08T03:52:41.826Z,89.52
2019-02-08T03:53:41.805Z,89.41
2019-02-08T03:54:41.812Z,89.58
2019-02-08T03:55:41.783Z,89.10
2019-02-08T03:56:41.763Z,89.06
2019-02-08T03:57:41.879Z,89.41
2019-02-08T03:58:41.886Z,89.10
2019-02-08T03:59:41.729Z,89.41
2019-02-08T04:00:41.730Z,89.94
2019-02-08T04:01:41.747Z,89.73
2019-02-08T04:02:41.712Z,89.48
2019-02-08T04:03:41.904Z,89.62
2019-02-08T04:04:41.692Z,89.31
2019-02-08T04:05:41.726Z,89.52
2019-02-08T04:06:41.743Z,89.41
2019-02-08T04:07:41.728Z,89.73
2019-02-08T04:08:41.632Z,89.73
2019-02-08T04:09:41.850Z,89.69
2019-02-08T04:10:41.809Z,89.69
2019-02-08T04:11:41.599Z,89.83
2019-02-08T04:12:41.622Z,89.79
2019-02-08T04:13:41.787Z,89.83
2019-02-08T04:14:41.579Z,89.62
2019-02-08T04:15:41.566Z,89.94
2019-02-08T04:16:41.579Z,89.94
2019-02-08T04:17:41.553Z,89.94
2019-02-08T04:18:42.568Z,89.94
2019-02-08T04:19:41.682Z,89.83
2019-02-08T04:20:41.529Z,89.62
2019-02-08T04:21:41.511Z,89.73
2019-02-08T04:22:41.489Z,90.04
2019-02-08T04:23:41.481Z,90.14
2019-02-08T04:24:42.152Z,90.45
2019-02-08T04:25:41.484Z,90.08
2019-02-08T04:26:41.448Z,90.77
2019-02-08T04:27:41.451Z,89.98
2019-02-08T04:28:41.415Z,90.97
2019-02-08T04:29:41.417Z,90.50
2019-02-08T04:30:41.633Z,90.35
2019-02-08T04:31:42.526Z,90.25
2019-02-08T04:32:41.908Z,89.94
2019-02-08T04:33:41.373Z,90.35
2019-02-08T04:35:05.021Z,90.56
2019-02-08T04:35:41.483Z,90.25
2019-02-08T04:36:41.335Z,90.04
2019-02-08T04:37:41.784Z,90.66
2019-02-08T04:38:41.322Z,90.66
2019-02-08T04:39:41.306Z,90.56
2019-02-08T04:40:43.012Z,90.77
2019-02-08T04:41:41.285Z,91.18
2019-02-08T04:42:41.275Z,90.97
2019-02-08T04:43:41.398Z,90.97
2019-02-08T04:44:41.247Z,90.52
2019-02-08T04:45:41.234Z,90.04
2019-02-08T04:46:41.262Z,90.52
2019-02-08T04:47:42.129Z,90.31
2019-02-08T04:48:41.323Z,89.58
2019-02-08T04:49:41.401Z,89.79
2019-02-08T04:50:41.344Z,89.89
2019-02-08T04:51:41.444Z,90.10
2019-02-08T04:52:41.257Z,89.48
2019-02-08T04:53:41.164Z,90.00
2019-02-08T04:54:41.328Z,89.89
2019-02-08T04:55:41.320Z,89.58
2019-02-08T04:56:41.130Z,89.89
2019-02-08T04:57:41.101Z,89.58
2019-02-08T04:58:41.098Z,89.58
2019-02-08T04:59:41.127Z,89.58
2019-02-08T05:00:41.102Z,89.48
2019-02-08T05:01:41.851Z,89.27
2019-02-08T05:02:41.075Z,89.69
2019-02-08T05:03:41.071Z,89.48
2019-02-08T05:04:41.093Z,89.27
2019-02-08T05:05:41.093Z,89.79
2019-02-08T05:06:41.096Z,89.58
2019-02-08T05:07:41.371Z,89.69
2019-02-08T05:08:41.103Z,89.58
2019-02-08T05:09:42.586Z,89.37
2019-02-08T05:10:41.064Z,89.27
2019-02-08T05:11:41.163Z,89.27
2019-02-08T05:12:40.946Z,89.33
2019-02-08T05:13:41.748Z,89.58
2019-02-08T05:14:40.926Z,89.02
2019-02-08T05:15:40.919Z,88.96
2019-02-08T05:16:40.934Z,88.92
2019-02-08T05:17:40.884Z,89.27
2019-02-08T05:18:41.335Z,89.23
2019-02-08T05:19:40.863Z,89.06
2019-02-08T05:20:40.858Z,89.17
2019-02-08T05:21:40.873Z,89.48
2019-02-08T05:22:40.847Z,89.43
2019-02-08T05:23:40.857Z,89.27
2019-02-08T05:24:45.878Z,89.27
2019-02-08T05:25:40.919Z,89.48
2019-02-08T05:26:40.851Z,89.27
2019-02-08T05:27:47.705Z,89.17
2019-02-08T05:28:41.407Z,89.37
2019-02-08T05:29:40.865Z,89.37
2019-02-08T05:30:40.780Z,89.48
2019-02-08T05:31:40.752Z,89.27
2019-02-08T05:32:40.758Z,89.37
2019-02-08T05:33:40.855Z,89.48
2019-02-08T05:34:40.708Z,89.27
2019-02-08T05:35:40.694Z,89.58
2019-02-08T05:36:40.689Z,89.48
2019-02-08T05:37:40.670Z,89.27
2019-02-08T05:38:40.689Z,89.27
2019-02-08T05:39:40.818Z,89.17
2019-02-08T05:40:40.647Z,88.75
2019-02-08T05:41:40.676Z,88.75
2019-02-08T05:42:40.630Z,89.06
2019-02-08T05:43:40.865Z,88.75
2019-02-08T05:44:40.623Z,88.81
2019-02-08T05:45:41.247Z,89.12
2019-02-08T05:46:40.579Z,89.27
2019-02-08T05:47:40.827Z,89.02
2019-02-08T05:48:40.569Z,89.37
2019-02-08T05:49:40.545Z,88.85
2019-02-08T05:50:40.558Z,89.02
2019-02-08T05:51:42.320Z,88.75
2019-02-08T05:52:40.511Z,89.27
2019-02-08T05:53:40.506Z,89.17
2019-02-08T05:54:40.491Z,89.17
2019-02-08T05:55:40.495Z,89.48
2019-02-08T05:56:40.486Z,89.12
2019-02-08T05:57:40.733Z,88.81
2019-02-08T05:58:40.769Z,88.92
2019-02-08T05:59:40.440Z,89.06
2019-02-08T06:00:41.411Z,88.71
2019-02-08T06:01:40.422Z,88.81
2019-02-08T06:02:40.411Z,88.92
2019-02-08T06:03:40.634Z,88.71
2019-02-08T06:04:40.793Z,88.81
2019-02-08T06:05:46.972Z,88.71
2019-02-08T06:06:40.378Z,88.81
2019-02-08T06:07:40.369Z,88.71
2019-02-08T06:08:40.342Z,88.81
2019-02-08T06:09:40.470Z,88.81
2019-02-08T06:10:40.312Z,88.71
2019-02-08T06:11:40.307Z,88.60
2019-02-08T06:12:40.305Z,88.71
2019-02-08T06:13:40.323Z,88.81
2019-02-08T06:14:40.332Z,88.60
2019-02-08T06:15:40.702Z,88.60
2019-02-08T06:16:40.249Z,88.71
2019-02-08T06:17:40.255Z,88.81
2019-02-08T06:18:40.231Z,88.81
2019-02-08T06:19:40.228Z,88.81
2019-02-08T06:20:40.211Z,88.81
2019-02-08T06:21:40.412Z,89.02
2019-02-08T06:22:40.183Z,89.02
2019-02-08T06:23:40.196Z,88.81
2019-02-08T06:24:40.175Z,88.81
2019-02-08T06:25:40.152Z,88.92
2019-02-08T06:26:40.146Z,88.81
2019-02-08T06:27:40.319Z,88.71
2019-02-08T06:28:40.125Z,89.12
2019-02-08T06:29:40.108Z,88.71
2019-02-08T06:30:40.128Z,88.81
2019-02-08T06:31:40.094Z,88.92
2019-02-08T06:32:40.226Z,88.81
2019-02-08T06:33:40.394Z,89.12
2019-02-08T06:34:41.294Z,88.50
2019-02-08T06:35:40.047Z,88.40
2019-02-08T06:36:40.387Z,88.92
2019-02-08T06:37:44.563Z,89.02
2019-02-08T06:38:40.016Z,88.92
2019-02-08T06:39:40.006Z,88.81
2019-02-08T06:40:40.015Z,89.02
2019-02-08T06:41:41.854Z,88.92
2019-02-08T06:42:40.143Z,88.40
2019-02-08T06:43:39.958Z,88.71
2019-02-08T06:44:39.952Z,88.92
2019-02-08T06:45:39.936Z,89.12
2019-02-08T06:46:40.233Z,89.23
2019-02-08T06:47:39.975Z,89.02
2019-02-08T06:48:39.906Z,88.40
2019-02-08T06:49:39.938Z,88.71
2019-02-08T06:50:39.901Z,88.71
2019-02-08T06:51:39.908Z,88.71
2019-02-08T06:52:40.181Z,88.71
2019-02-08T06:53:39.871Z,88.92
2019-02-08T06:54:39.853Z,88.71
2019-02-08T06:55:39.830Z,88.71
2019-02-08T06:56:39.829Z,88.71
2019-02-08T06:57:39.806Z,88.71
2019-02-08T06:58:39.966Z,89.02
2019-02-08T06:59:39.784Z,88.92
2019-02-08T07:00:39.806Z,88.92
2019-02-08T07:01:39.770Z,88.87
2019-02-08T07:02:40.228Z,88.40
2019-02-08T07:03:39.905Z,88.40
2019-02-08T07:04:39.801Z,88.40
2019-02-08T07:05:39.718Z,88.92
2019-02-08T07:06:39.711Z,88.81
2019-02-08T07:07:39.705Z,89.02
2019-02-08T07:08:40.162Z,88.81
2019-02-08T07:09:39.679Z,88.40
2019-02-08T07:10:41.409Z,88.35
2019-02-08T07:11:39.792Z,88.04
2019-02-08T07:12:39.655Z,88.04
2019-02-08T07:13:39.660Z,87.84
2019-02-08T07:14:39.787Z,88.15
2019-02-08T07:15:39.618Z,88.50
2019-02-08T07:16:39.607Z,87.88
2019-02-08T07:17:39.676Z,87.84
2019-02-08T07:18:39.591Z,87.63
2019-02-08T07:19:39.814Z,87.32
2019-02-08T07:20:39.577Z,87.32
2019-02-08T07:21:39.645Z,87.73
2019-02-08T07:22:39.534Z,87.73
2019-02-08T07:23:39.540Z,87.63
2019-02-08T07:24:39.523Z,87.63
2019-02-08T07:25:39.905Z,87.32
2019-02-08T07:26:39.522Z,87.21
2019-02-08T07:27:39.540Z,87.32
2019-02-08T07:28:39.480Z,87.01
2019-02-08T07:29:39.456Z,87.32
2019-02-08T07:30:39.462Z,87.32
2019-02-08T07:31:39.705Z,87.32
2019-02-08T07:32:39.710Z,87.21
2019-02-08T07:33:39.421Z,86.80
2019-02-08T07:34:39.409Z,86.80
2019-02-08T07:35:39.409Z,87.01
2019-02-08T07:36:39.405Z,87.21
2019-02-08T07:37:39.597Z,87.11
2019-02-08T07:38:39.760Z,87.17
2019-02-08T07:39:39.419Z,87.27
2019-02-08T07:40:39.354Z,86.44
2019-02-08T07:41:39.367Z,86.49
2019-02-08T07:42:39.337Z,86.55
2019-02-08T07:43:39.329Z,86.38
2019-02-08T07:44:39.526Z,86.65
2019-02-08T07:45:39.289Z,86.69
2019-02-08T07:46:39.284Z,86.49
2019-02-08T07:47:39.276Z,86.44
2019-02-08T07:48:39.260Z,85.93
2019-02-08T07:49:39.280Z,86.44
2019-02-08T07:50:39.410Z,85.82
2019-02-08T07:51:39.326Z,86.03
2019-02-08T07:52:40.556Z,85.82
2019-02-08T07:53:39.403Z,85.82
2019-02-08T07:54:39.205Z,85.30
2019-02-08T07:55:39.410Z,85.36
2019-02-08T07:56:39.330Z,85.57
2019-02-08T07:57:39.382Z,84.74
2019-02-08T07:58:39.187Z,84.74
2019-02-08T07:59:39.185Z,84.64
2019-02-08T08:00:39.184Z,84.53
2019-02-08T08:01:39.508Z,84.60
2019-02-08T08:02:39.206Z,84.08
2019-02-08T08:03:39.190Z,83.94
2019-02-08T08:04:39.200Z,82.97
2019-02-08T08:05:39.183Z,82.24
2019-02-08T08:06:39.199Z,81.58
2019-02-08T08:07:39.435Z,80.85
2019-02-08T08:08:39.197Z,79.99
2019-02-08T08:09:39.207Z,79.13
2019-02-08T08:10:39.247Z,78.26
2019-02-08T08:11:39.494Z,77.39
2019-02-08T08:12:39.085Z,77.01
2019-02-08T08:13:39.146Z,77.33
2019-02-08T08:14:39.279Z,76.88
2019-02-08T08:15:39.211Z,76.67
2019-02-08T08:16:38.981Z,75.95
2019-02-08T08:17:39.368Z,75.95
2019-02-08T08:18:38.987Z,76.98
2019-02-08T08:19:38.923Z,77.12
2019-02-08T08:20:38.908Z,77.43
2019-02-08T08:21:38.907Z,77.43
2019-02-08T08:22:38.889Z,76.81
2019-02-08T08:23:39.345Z,75.84
2019-02-08T08:24:38.874Z,75.67
2019-02-08T08:25:39.321Z,74.63
2019-02-08T08:26:38.877Z,74.43
2019-02-08T08:27:38.943Z,73.50
2019-02-08T08:28:38.969Z,73.71
2019-02-08T08:29:38.837Z,73.50
2019-02-08T08:30:38.802Z,73.36
2019-02-08T08:31:38.789Z,73.47
2019-02-08T08:32:38.782Z,73.36
2019-02-08T08:33:38.947Z,73.67
2019-02-08T08:34:39.857Z,73.26
2019-02-08T08:35:40.300Z,72.61
2019-02-08T08:36:38.737Z,72.16
2019-02-08T08:37:38.725Z,71.44
2019-02-08T08:38:38.726Z,71.75
2019-02-08T08:39:38.720Z,70.78
2019-02-08T08:40:38.815Z,70.75
2019-02-08T08:41:38.681Z,70.00
2019-02-08T08:42:40.518Z,70.75
2019-02-08T08:43:38.658Z,69.85
2019-02-08T08:44:38.802Z,71.09
2019-02-08T08:45:38.649Z,71.75
2019-02-08T08:46:38.974Z,71.64
2019-02-08T08:47:38.778Z,71.54
2019-02-08T08:48:38.602Z,71.67
2019-02-08T08:49:38.600Z,71.88
2019-02-08T08:50:38.588Z,71.41
2019-02-08T08:51:38.570Z,68.87
2019-02-08T08:52:38.574Z,64.43
2019-02-08T08:53:38.667Z,62.12
2019-02-08T08:54:38.545Z,60.58
2019-02-08T08:55:42.278Z,55.76
2019-02-08T08:56:38.558Z,52.42
2019-02-08T08:57:38.531Z,50.42
2019-02-08T08:58:38.667Z,47.27
2019-02-08T08:59:38.490Z,45.37
2019-02-08T09:00:38.473Z,45.58
2019-02-08T09:01:38.643Z,45.78
2019-02-08T09:02:38.465Z,44.52
2019-02-08T09:03:39.508Z,43.47
2019-02-08T09:04:38.727Z,41.93
2019-02-08T09:05:38.424Z,42.54
2019-02-08T09:06:44.992Z,40.98
2019-02-08T09:07:38.402Z,40.75
2019-02-08T09:08:38.390Z,39.58
2019-02-08T09:09:38.385Z,41.54
2019-02-08T09:10:38.687Z,42.17
2019-02-08T09:11:38.371Z,41.78
2019-02-08T09:12:38.348Z,41.93
2019-02-08T09:13:38.342Z,39.50
2019-02-08T09:14:38.328Z,37.82
2019-02-08T09:15:38.320Z,36.74
2019-02-08T09:16:38.665Z,40.34
2019-02-08T09:17:38.293Z,45.99
2019-02-08T09:18:38.391Z,45.89
2019-02-08T09:19:38.272Z,40.77
2019-02-08T09:20:39.103Z,38.70
2019-02-08T09:21:39.091Z,39.04
2019-02-08T09:22:38.563Z,39.06
2019-02-08T09:23:38.224Z,40.19
2019-02-08T09:24:38.212Z,38.75
2019-02-08T09:25:38.234Z,40.43
2019-02-08T09:26:38.200Z,40.19
2019-02-08T09:27:38.175Z,38.84
2019-02-08T09:28:38.322Z,38.41
2019-02-08T09:29:38.168Z,38.26
2019-02-08T09:30:38.152Z,37.02
2019-02-08T09:31:38.140Z,37.51
2019-02-08T09:32:38.300Z,34.66
2019-02-08T09:33:38.223Z,34.97
2019-02-08T09:34:38.094Z,36.42
2019-02-08T09:35:38.130Z,37.37
2019-02-08T09:36:38.084Z,36.29
2019-02-08T09:37:38.100Z,35.14
2019-02-08T09:38:38.227Z,34.11
2019-02-08T09:39:38.053Z,33.51
2019-02-08T09:40:38.036Z,34.79
2019-02-08T09:41:38.097Z,37.16
2019-02-08T09:42:38.014Z,36.94
2019-02-08T09:43:38.014Z,36.39
2019-02-08T09:44:38.293Z,35.08
2019-02-08T09:45:37.982Z,36.24
2019-02-08T09:46:37.969Z,36.22
2019-02-08T09:47:37.953Z,37.90
2019-02-08T09:48:38.269Z,38.61
2019-02-08T09:49:38.211Z,38.19
2019-02-08T09:50:38.045Z,38.02
2019-02-08T09:51:37.912Z,38.73
2019-02-08T09:52:37.899Z,39.07
2019-02-08T09:53:39.240Z,39.37
2019-02-08T09:54:37.884Z,39.88
2019-02-08T09:55:38.028Z,38.31
2019-02-08T09:56:37.862Z,37.46
2019-02-08T09:57:37.847Z,37.23
2019-02-08T09:58:37.830Z,35.99
2019-02-08T09:59:37.823Z,35.26
2019-02-08T10:00:37.996Z,34.96
2019-02-08T10:01:37.813Z,36.12
2019-02-08T10:02:37.807Z,36.71
2019-02-08T10:03:39.840Z,36.42
2019-02-08T10:04:37.773Z,37.50
2019-02-08T10:05:37.854Z,37.89
2019-02-08T10:06:37.940Z,37.90
2019-02-08T10:07:37.881Z,36.93
2019-02-08T10:08:37.737Z,36.61
2019-02-08T10:09:37.736Z,35.36
2019-02-08T10:10:37.704Z,34.54
2019-02-08T10:11:39.728Z,34.94
2019-02-08T10:12:37.862Z,33.87
2019-02-08T10:13:37.680Z,32.24
2019-02-08T10:14:38.155Z,35.58
2019-02-08T10:15:37.644Z,35.48
2019-02-08T10:16:37.725Z,36.22
2019-02-08T10:17:37.942Z,36.00
2019-02-08T10:18:37.800Z,35.66
2019-02-08T10:19:38.279Z,34.22
2019-02-08T10:20:38.219Z,34.22
2019-02-08T10:21:37.804Z,34.54
2019-02-08T10:22:37.643Z,34.56
2019-02-08T10:23:37.787Z,36.52
2019-02-08T10:24:37.684Z,36.98
2019-02-08T10:25:37.565Z,38.85
2019-02-08T10:26:37.581Z,40.39
2019-02-08T10:27:37.509Z,39.15
2019-02-08T10:28:37.943Z,39.44
2019-02-08T10:29:37.498Z,38.15
2019-02-08T10:30:37.517Z,36.20
2019-02-08T10:31:37.513Z,38.09
2019-02-08T10:32:37.472Z,39.48
2019-02-08T10:33:37.447Z,39.24
2019-02-08T10:34:37.614Z,38.93
2019-02-08T10:35:38.021Z,38.51
2019-02-08T10:36:37.423Z,41.03
2019-02-08T10:37:37.429Z,41.78
2019-02-08T10:38:37.431Z,42.41
2019-02-08T10:39:37.482Z,42.51
2019-02-08T10:40:37.643Z,43.57
2019-02-08T10:41:37.724Z,45.14
2019-02-08T10:42:37.391Z,43.96
2019-02-08T10:43:39.023Z,44.59
2019-02-08T10:44:38.126Z,43.96
2019-02-08T10:45:38.106Z,43.44
2019-02-08T10:46:37.310Z,44.93
2019-02-08T10:47:37.457Z,44.60
2019-02-08T10:48:37.292Z,44.53
2019-02-08T10:49:38.026Z,45.34
2019-02-08T10:50:37.312Z,45.84
2019-02-08T10:51:37.515Z,45.59
2019-02-08T10:52:37.830Z,47.24
2019-02-08T10:53:37.413Z,48.50
2019-02-08T10:54:37.376Z,47.85
2019-02-08T10:55:37.214Z,45.56
2019-02-08T10:56:37.408Z,43.00
2019-02-08T10:57:37.195Z,40.47
2019-02-08T10:58:37.392Z,38.93
2019-02-08T10:59:37.400Z,39.78
2019-02-08T11:00:37.720Z,39.58
2019-02-08T11:01:42.007Z,43.49
2019-02-08T11:02:38.145Z,46.83
2019-02-08T11:03:37.139Z,47.91
2019-02-08T11:04:37.689Z,50.15
2019-02-08T11:05:37.164Z,51.68
2019-02-08T11:06:37.399Z,51.81
2019-02-08T11:07:37.136Z,51.48
2019-02-08T11:08:37.572Z,50.86
2019-02-08T11:09:37.160Z,52.24
2019-02-08T11:10:37.186Z,54.03
2019-02-08T11:11:37.339Z,55.28
2019-02-08T11:12:37.538Z,55.72
2019-02-08T11:13:37.297Z,55.36
2019-02-08T11:14:37.491Z,54.21
2019-02-08T11:15:37.266Z,53.67
2019-02-08T11:16:37.005Z,53.26
2019-02-08T11:17:36.999Z,54.36
2019-02-08T11:18:37.455Z,55.94
2019-02-08T11:19:36.954Z,57.31
2019-02-08T11:20:36.935Z,57.28
2019-02-08T11:21:36.944Z,57.61
2019-02-08T11:22:36.963Z,58.03
2019-02-08T11:23:36.945Z,56.77
2019-02-08T11:24:37.379Z,56.87
2019-02-08T11:25:36.880Z,56.84
2019-02-08T11:26:36.874Z,56.10
2019-02-08T11:27:36.872Z,56.20
2019-02-08T11:28:36.905Z,56.41
2019-02-08T11:29:36.847Z,55.79
2019-02-08T11:30:37.464Z,56.54
2019-02-08T11:31:36.827Z,57.02
2019-02-08T11:32:43.295Z,55.49
2019-02-08T11:33:39.620Z,55.02
2019-02-08T11:34:36.818Z,53.57
2019-02-08T11:35:36.766Z,52.45
2019-02-08T11:36:36.945Z,50.56
2019-02-08T11:37:36.746Z,48.30
2019-02-08T11:38:36.744Z,48.71
2019-02-08T11:39:36.732Z,49.42
2019-02-08T11:40:36.734Z,49.87
2019-02-08T11:41:36.708Z,50.89
2019-02-08T11:42:36.836Z,47.78
2019-02-08T11:43:36.689Z,46.81
2019-02-08T11:44:36.684Z,47.97
2019-02-08T11:45:36.745Z,49.62
2019-02-08T11:46:36.657Z,48.68
2019-02-08T11:47:36.630Z,48.33
2019-02-08T11:48:36.929Z,47.19
2019-02-08T11:49:36.626Z,46.66
2019-02-08T11:50:36.617Z,47.11
2019-02-08T11:51:36.593Z,48.25
2019-02-08T11:52:36.586Z,48.23
2019-02-08T11:53:36.702Z,46.53
2019-02-08T11:54:38.117Z,46.21
2019-02-08T11:55:36.695Z,45.20
2019-02-08T11:56:36.846Z,43.61
2019-02-08T11:57:36.669Z,43.93
2019-02-08T11:58:36.808Z,42.23
2019-02-08T11:59:37.704Z,41.97
2019-02-08T12:00:36.616Z,44.38
2019-02-08T12:01:36.736Z,44.46
2019-02-08T12:02:40.515Z,44.34
2019-02-08T12:03:36.464Z,44.06
2019-02-08T12:04:36.471Z,45.75
2019-02-08T12:05:36.869Z,46.68
2019-02-08T12:06:36.431Z,47.13
2019-02-08T12:07:36.416Z,48.18
2019-02-08T12:08:36.408Z,48.42
2019-02-08T12:09:36.417Z,50.92
2019-02-08T12:10:36.576Z,51.48
2019-02-08T12:11:36.684Z,53.03
2019-02-08T12:12:36.373Z,52.83
2019-02-08T12:13:36.356Z,53.21
2019-02-08T12:14:36.514Z,53.31
2019-02-08T12:15:36.447Z,53.47
2019-02-08T12:16:36.506Z,54.00
2019-02-08T12:17:36.539Z,55.77
2019-02-08T12:18:36.298Z,56.71
2019-02-08T12:19:36.465Z,56.74
2019-02-08T12:20:36.287Z,57.35
2019-02-08T12:21:36.300Z,57.79
2019-02-08T12:22:36.433Z,58.38
2019-02-08T12:23:36.249Z,57.46
2019-02-08T12:24:36.233Z,57.97
2019-02-08T12:25:36.213Z,55.74
2019-02-08T12:26:37.969Z,53.83
2019-02-08T12:27:36.188Z,53.62
2019-02-08T12:28:36.365Z,53.42
2019-02-08T12:29:36.167Z,54.46
2019-02-08T12:30:36.168Z,54.18
2019-02-08T12:31:36.162Z,55.84
2019-02-08T12:32:36.167Z,55.87
2019-02-08T12:33:36.132Z,57.02
2019-02-08T12:34:36.361Z,57.76
2019-02-08T12:35:36.168Z,58.07
2019-02-08T12:36:36.354Z,57.87
2019-02-08T12:37:36.096Z,57.76
2019-02-08T12:38:36.392Z,58.81
2019-02-08T12:39:36.059Z,58.51
2019-02-08T12:40:36.045Z,59.77
2019-02-08T12:41:36.048Z,60.31
2019-02-08T12:42:36.496Z,60.92
2019-02-08T12:43:36.046Z,60.82
2019-02-08T12:44:37.757Z,61.44
2019-02-08T12:45:36.029Z,60.92
2019-02-08T12:46:35.985Z,61.33
2019-02-08T12:47:36.173Z,61.54
2019-02-08T12:48:36.524Z,61.44
2019-02-08T12:49:35.961Z,59.09
2019-02-08T12:50:35.946Z,58.58
2019-02-08T12:51:36.205Z,58.15
2019-02-08T12:52:35.915Z,58.25